Bow Pilot — S6EN — position and weather

sailwx.info

Track history (hours):
 
Tides and Currents Weather Stations Pressure Air Temp Water Temp Dewpoint Dewpoint Depression Visibility Wind Speed Wind Dir Waves Ship Positions

Bow Pilot

Last reported at 2014-Nov-23 05:15 UTC. Time now 2014-Nov-24 08:04 UTC.
Position N 40°56' E 028°56'.

Length 104 m; draft 5.8 m.

Type: Ship (hazmat cat B). MMSI: 564978000.

Date/timePositionNaut miles runAvg speedWind from/ knotsBaromVisibWave heightAir tempDewpointWater temp
2014-Nov-23 05:15N 40°56' E 028°56'912.6
2014-Nov-23 04:33N 40°49' E 029°02'1110.6
2014-Nov-23 03:33N 40°45' E 029°15'8 0.5
2014-Nov-22 13:28N 40°42' E 029°25'0 0.0
2014-Nov-22 05:32N 40°42' E 029°25'3 2.8
2014-Nov-22 04:34N 40°43' E 029°21'1 0.9
2014-Nov-22 03:12N 40°42' E 029°21'0 0.0
2014-Nov-21 22:18N 40°42' E 029°21'1 0.1
2014-Nov-21 12:32N 40°42' E 029°20'1212.2
2014-Nov-21 11:33N 40°44' E 029°04'29810.6
2014-Nov-20 07:26N 37°26' E 024°17'45210.7
2014-Nov-18 13:18N 36°24' E 014°57'1012.2
2014-Nov-18 12:31N 36°24' E 014°45'1612.3
2014-Nov-18 11:14N 36°27' E 014°26'57811.4
2014-Nov-16 08:26N 40°29' E 003°16'1011.6
2014-Nov-16 07:33N 40°32' E 003°03'1211.8
2014-Nov-16 06:33N 40°36' E 002°48'1211.6
2014-Nov-16 05:33N 40°40' E 002°34'1211.7
2014-Nov-16 04:33N 40°45' E 002°20'1211.5
2014-Nov-16 03:33N 40°49' E 002°05'61 2.9
2014-Nov-15 06:07N 40°11' E 001°01'39210.7
2014-Nov-13 17:24N 35°56' W 005°17'3 3.1
2014-Nov-13 16:32N 35°54' W 005°19'0 0.0
2014-Nov-13 15:32N 35°54' W 005°19'0 0.0
2014-Nov-13 14:32N 35°54' W 005°19'0 0.0
2014-Nov-13 13:32N 35°54' W 005°19'0 0.1
2014-Nov-13 12:33N 35°54' W 005°19'2 1.6
2014-Nov-13 11:33N 35°55' W 005°19'  
Track history (hours):
 
Tides and Currents Weather Stations Pressure Air Temp Water Temp Dewpoint Dewpoint Depression Visibility Wind Speed Wind Dir Waves Ship Positions

Bow Pilot

Last reported at 2014-Nov-23 05:15 UTC. Time now 2014-Nov-24 08:04 UTC.
Position N 40°56' E 028°56'.

Length 104 m; draft 5.8 m.

Type: Ship (hazmat cat B). MMSI: 564978000.

Date/timePositionNaut miles runAvg speedWind from/ knotsBaromVisibWave heightAir tempDewpointWater temp
2014-Nov-23 05:15N 40°56' E 028°56'912.6
2014-Nov-23 04:33N 40°49' E 029°02'1110.6
2014-Nov-23 03:33N 40°45' E 029°15'8 0.5
2014-Nov-22 13:28N 40°42' E 029°25'0 0.0
2014-Nov-22 05:32N 40°42' E 029°25'3 2.8
2014-Nov-22 04:34N 40°43' E 029°21'1 0.9
2014-Nov-22 03:12N 40°42' E 029°21'0 0.0
2014-Nov-21 22:18N 40°42' E 029°21'1 0.1
2014-Nov-21 12:32N 40°42' E 029°20'1212.2
2014-Nov-21 11:33N 40°44' E 029°04'29810.6
2014-Nov-20 07:26N 37°26' E 024°17'45210.7
2014-Nov-18 13:18N 36°24' E 014°57'1012.2
2014-Nov-18 12:31N 36°24' E 014°45'1612.3
2014-Nov-18 11:14N 36°27' E 014°26'57811.4
2014-Nov-16 08:26N 40°29' E 003°16'1011.6
2014-Nov-16 07:33N 40°32' E 003°03'1211.8
2014-Nov-16 06:33N 40°36' E 002°48'1211.6
2014-Nov-16 05:33N 40°40' E 002°34'1211.7
2014-Nov-16 04:33N 40°45' E 002°20'1211.5
2014-Nov-16 03:33N 40°49' E 002°05'61 2.9
2014-Nov-15 06:07N 40°11' E 001°01'39210.7
2014-Nov-13 17:24N 35°56' W 005°17'3 3.1
2014-Nov-13 16:32N 35°54' W 005°19'0 0.0
2014-Nov-13 15:32N 35°54' W 005°19'0 0.0
2014-Nov-13 14:32N 35°54' W 005°19'0 0.0
2014-Nov-13 13:32N 35°54' W 005°19'0 0.1
2014-Nov-13 12:33N 35°54' W 005°19'2 1.6
2014-Nov-13 11:33N 35°55' W 005°19'  

Dump ship's entire track history